Time;durP1;ratioP1;P1;durP2;ratioP2;P2;SDS_P1;SDS_P2;PMS_P1;PMS_P2;Temp;Humidity;BMP_temperature;BMP_pressure;BME280_temperature;BME280_humidity;BME280_pressure;Samples;Min_cycle;Max_cycle;Signal;HPM_P1;HPM_P2
2024/01/09 00:01:55;;;;;;;12.48;10.45;;;;;;;1.68;69.78;94537.56;4195324;28;20101;-74
2024/01/09 00:03:57;;;;;;;11.32;9.57;;;;;;;1.70;69.27;94534.84;4196453;28;20395;-73
2024/01/09 00:05:59;;;;;;;10.60;9.43;;;;;;;1.70;69.73;94535.69;4196776;28;20143;-77
2024/01/09 00:08:01;;;;;;;12.85;10.50;;;;;;;1.72;69.84;94538.16;4204268;28;20041;-75
2024/01/09 00:10:04;;;;;;;11.98;10.32;;;;;;;1.69;69.38;94528.06;4202467;28;20116;-74
2024/01/09 00:12:07;;;;;;;11.77;10.25;;;;;;;1.63;70.05;94539.63;4202448;28;20174;-73
2024/01/09 00:14:10;;;;;;;12.75;10.68;;;;;;;1.69;70.05;94544.38;4197510;28;20075;-71
2024/01/09 00:16:12;;;;;;;;;;;;;;;1.73;69.92;94550.97;4201988;28;20455;-73
2024/01/09 00:18:14;;;;;;;12.43;9.98;;;;;;;1.70;68.96;94547.75;4200099;28;20537;-72
2024/01/09 00:20:16;;;;;;;12.48;10.35;;;;;;;1.72;69.46;94541.59;4198693;28;20123;-74
2024/01/09 00:22:18;;;;;;;11.95;9.82;;;;;;;1.60;69.27;94552.78;4199581;28;20060;-73
2024/01/09 00:24:20;;;;;;;11.80;10.40;;;;;;;1.60;69.28;94551.00;4198980;28;20132;-74
2024/01/09 00:26:22;;;;;;;13.13;9.85;;;;;;;1.56;69.55;94562.47;4200090;28;20117;-73
2024/01/09 00:28:24;;;;;;;10.98;9.27;;;;;;;1.53;69.49;94565.28;4202375;28;20407;-74
2024/01/09 00:30:26;;;;;;;10.82;9.57;;;;;;;1.52;69.69;94562.81;4199455;28;20118;-72
2024/01/09 00:32:28;;;;;;;12.02;10.68;;;;;;;1.51;69.74;94559.41;4192410;28;20048;-73
2024/01/09 00:34:30;;;;;;;12.52;10.73;;;;;;;1.52;70.09;94558.47;4202940;28;20114;-73
2024/01/09 00:36:32;;;;;;;11.68;10.20;;;;;;;1.60;70.04;94565.69;4205526;28;20044;-72
2024/01/09 00:38:35;;;;;;;11.85;9.75;;;;;;;1.69;69.60;94564.22;4203778;28;20048;-72
2024/01/09 00:40:37;;;;;;;12.15;10.10;;;;;;;1.73;69.65;94558.72;4199340;28;20048;-71
2024/01/09 00:42:38;;;;;;;11.88;9.98;;;;;;;1.72;68.77;94566.56;4191905;28;20040;-74
2024/01/09 00:44:41;;;;;;;12.57;10.32;;;;;;;1.68;68.67;94576.31;4201215;28;20202;-73
2024/01/09 00:46:43;;;;;;;12.32;10.05;;;;;;;1.72;69.14;94569.13;4203426;28;20045;-73
2024/01/09 00:48:44;;;;;;;11.63;10.35;;;;;;;1.62;68.71;94574.97;4202516;28;20040;-72
2024/01/09 00:50:47;;;;;;;13.82;11.05;;;;;;;1.62;69.33;94581.88;4208317;28;20056;-71
2024/01/09 00:52:49;;;;;;;11.75;9.38;;;;;;;1.55;69.25;94578.91;4194262;28;20059;-74
2024/01/09 00:54:50;;;;;;;12.10;10.30;;;;;;;1.54;69.35;94585.00;4201287;28;20772;-74
2024/01/09 00:56:52;;;;;;;12.65;9.82;;;;;;;1.62;69.23;94582.72;4204403;28;20151;-75
2024/01/09 00:58:54;;;;;;;12.95;10.15;;;;;;;1.65;68.89;94581.66;4201959;28;20045;-74
2024/01/09 01:00:56;;;;;;;12.15;9.88;;;;;;;1.63;68.89;94583.53;4205478;28;20511;-75
2024/01/09 01:02:58;;;;;;;13.00;10.00;;;;;;;1.64;68.53;94586.00;4201019;28;20419;-74
2024/01/09 01:05:00;;;;;;;11.93;9.88;;;;;;;1.62;68.88;94580.13;4201020;28;20052;-74
2024/01/09 01:07:02;;;;;;;11.63;10.13;;;;;;;1.64;68.96;94595.53;4203671;28;20541;-76
2024/01/09 01:09:04;;;;;;;11.90;10.18;;;;;;;1.62;68.75;94582.72;4201328;28;20040;-76
2024/01/09 01:11:06;;;;;;;11.50;10.00;;;;;;;1.57;68.91;94584.81;4203556;28;20564;-73
2024/01/09 01:13:08;;;;;;;12.63;10.02;;;;;;;1.54;68.69;94581.59;4194867;28;20044;-75
2024/01/09 01:15:10;;;;;;;12.57;9.55;;;;;;;1.54;69.57;94587.56;4202736;28;20056;-72
2024/01/09 01:17:11;;;;;;;12.10;10.02;;;;;;;1.59;68.77;94579.50;4202359;28;20074;-73
2024/01/09 01:19:13;;;;;;;11.80;10.27;;;;;;;1.61;68.77;94587.97;4200374;28;20136;-72
2024/01/09 01:21:15;;;;;;;13.02;10.20;;;;;;;1.59;68.66;94595.84;4203538;28;20048;-72
2024/01/09 01:23:18;;;;;;;13.18;9.95;;;;;;;1.63;68.85;94597.28;4198567;28;20491;-72
2024/01/09 01:25:19;;;;;;;12.40;9.65;;;;;;;1.56;68.33;94593.47;4201882;28;20072;-74
2024/01/09 01:27:21;;;;;;;12.27;9.85;;;;;;;1.58;68.58;94591.59;4200136;28;20040;-74
2024/01/09 01:29:23;;;;;;;12.45;9.95;;;;;;;1.60;68.85;94591.50;4204352;28;20113;-73
2024/01/09 01:31:25;;;;;;;12.80;10.40;;;;;;;1.56;68.62;94601.22;4199635;28;20097;-74
2024/01/09 01:33:27;;;;;;;12.43;10.35;;;;;;;1.52;68.46;94599.78;4203315;28;20112;-73
2024/01/09 01:35:29;;;;;;;12.43;10.77;;;;;;;1.57;68.60;94597.72;4208032;28;20083;-74
2024/01/09 01:37:31;;;;;;;11.85;9.52;;;;;;;1.57;68.26;94602.88;4202711;28;20101;-74
2024/01/09 01:39:33;;;;;;;12.07;10.25;;;;;;;1.62;69.12;94597.38;4195585;28;20496;-74
2024/01/09 01:41:35;;;;;;;11.40;9.95;;;;;;;1.69;68.45;94597.78;4196334;28;20103;-73
2024/01/09 01:43:37;;;;;;;13.32;10.27;;;;;;;1.74;68.17;94593.94;4203137;28;20102;-74
2024/01/09 01:45:39;;;;;;;11.48;10.20;;;;;;;1.73;67.79;94602.63;4207357;28;20195;-73
2024/01/09 01:47:43;;;;;;;12.18;10.23;;;;;;;1.59;67.51;94597.59;4200523;28;20090;-71
2024/01/09 01:49:45;;;;;;;12.40;10.27;;;;;;;1.45;68.79;94598.56;4204579;28;20048;-72
2024/01/09 01:51:49;;;;;;;13.57;10.77;;;;;;;0.79;69.63;94601.28;4195242;28;20425;-75
2024/01/09 01:53:51;;;;;;;11.63;10.00;;;;;;;0.40;70.82;94604.72;4197639;28;20136;-74
2024/01/09 01:55:53;;;;;;;13.35;10.38;;;;;;;0.41;72.66;94608.97;4203507;28;20048;-74
2024/01/09 01:57:56;;;;;;;13.00;10.88;;;;;;;0.01;73.30;94608.94;4196453;28;20053;-75
2024/01/09 01:59:58;;;;;;;14.10;10.75;;;;;;;-0.13;74.69;94606.41;4198964;28;20048;-74
2024/01/09 02:02:02;;;;;;;12.93;10.60;;;;;;;-0.20;74.89;94611.13;4200485;28;20056;-74
2024/01/09 02:04:06;;;;;;;13.55;10.57;;;;;;;-0.50;76.43;94614.69;4204440;28;20405;-74
2024/01/09 02:06:08;;;;;;;;;;;;;;;-0.23;76.97;94607.00;4209451;28;20143;-73
2024/01/09 02:08:12;;;;;;;12.32;10.32;;;;;;;-0.14;75.90;94613.31;4206814;28;19934;-73
2024/01/09 02:10:14;;;;;;;14.35;10.88;;;;;;;-0.07;75.82;94608.59;4199296;28;20078;-72
2024/01/09 02:12:16;;;;;;;15.32;11.50;;;;;;;-0.02;75.25;94607.41;4203232;28;20207;-75
2024/01/09 02:14:17;;;;;;;14.38;10.88;;;;;;;-0.07;75.26;94606.84;4201043;28;20058;-74
2024/01/09 02:16:19;;;;;;;14.18;11.38;;;;;;;0.08;75.22;94610.19;4200269;28;20066;-72
2024/01/09 02:18:22;;;;;;;12.63;11.25;;;;;;;0.18;74.41;94610.47;4207460;28;20047;-73
2024/01/09 02:20:25;;;;;;;14.35;11.13;;;;;;;0.40;74.13;94612.47;4181021;28;20194;-72
2024/01/09 02:22:26;;;;;;;13.23;10.95;;;;;;;0.58;74.03;94615.59;4201968;28;20121;-70
2024/01/09 02:24:28;;;;;;;14.02;11.80;;;;;;;0.70;72.78;94612.19;4198996;28;20530;-74
2024/01/09 02:26:35;;;;;;;14.25;9.93;;;;;;;0.53;73.08;94612.50;4204959;28;20052;-73
2024/01/09 02:29:01;;;;;;;15.63;10.93;;;;;;;0.56;72.83;94609.69;4197986;28;20478;-75
2024/01/09 02:31:03;;;;;;;14.27;10.93;;;;;;;0.70;73.22;94612.19;4204158;28;20608;-73
2024/01/09 02:33:07;;;;;;;13.90;11.38;;;;;;;0.58;72.66;94610.41;4199888;28;20446;-74
2024/01/09 02:35:09;;;;;;;14.88;11.23;;;;;;;0.61;73.21;94611.06;4207428;28;20071;-73
2024/01/09 02:37:11;;;;;;;14.63;11.10;;;;;;;0.52;73.70;94611.66;4202389;28;20529;-73
2024/01/09 02:39:13;;;;;;;13.50;10.85;;;;;;;0.51;72.83;94609.19;4204469;28;20147;-72
2024/01/09 02:41:15;;;;;;;14.65;11.43;;;;;;;0.49;73.14;94614.44;4201734;28;20132;-71
2024/01/09 02:43:17;;;;;;;13.05;9.82;;;;;;;0.50;73.22;94603.22;4195596;28;20099;-75
2024/01/09 02:45:18;;;;;;;15.00;10.70;;;;;;;0.66;73.57;94609.94;4205085;28;20052;-74
2024/01/09 02:47:21;;;;;;;15.13;10.60;;;;;;;0.69;73.00;94612.28;4201462;28;20128;-76
2024/01/09 02:49:23;;;;;;;12.68;9.70;;;;;;;0.68;72.94;94614.06;4204951;28;20506;-73
2024/01/09 02:51:25;;;;;;;11.70;9.38;;;;;;;0.54;72.83;94612.41;4203933;28;20048;-72
2024/01/09 02:53:27;;;;;;;12.85;10.15;;;;;;;0.60;72.77;94606.84;4205969;28;20645;-73
2024/01/09 02:55:31;;;;;;;13.75;10.57;;;;;;;0.53;73.20;94609.91;4113775;28;2555252;-74
2024/01/09 02:57:33;;;;;;;13.63;10.68;;;;;;;0.68;73.75;94613.25;4204570;28;20048;-73
2024/01/09 02:59:36;;;;;;;12.27;10.15;;;;;;;0.82;72.82;94613.16;4199300;28;20048;-74
2024/01/09 03:01:37;;;;;;;14.05;11.27;;;;;;;0.89;71.93;94605.84;4207283;28;20138;-72
2024/01/09 03:03:39;;;;;;;14.10;10.50;;;;;;;0.66;71.89;94605.59;4207798;28;20044;-74
2024/01/09 03:05:41;;;;;;;14.30;11.05;;;;;;;0.61;73.46;94605.91;4205483;28;20048;-75
2024/01/09 03:07:43;;;;;;;13.05;10.65;;;;;;;0.70;73.14;94612.19;4202070;28;20044;-75
2024/01/09 03:09:45;;;;;;;11.85;10.00;;;;;;;0.73;72.94;94614.59;4206144;28;20385;-74
2024/01/09 03:11:47;;;;;;;14.25;10.70;;;;;;;0.61;72.24;94613.63;4203542;28;20461;-76
2024/01/09 03:13:50;;;;;;;14.02;10.77;;;;;;;0.73;72.87;94617.16;4200768;28;20044;-74
2024/01/09 03:15:51;;;;;;;13.65;10.38;;;;;;;0.89;72.55;94616.97;4206262;28;20090;-72
2024/01/09 03:17:53;;;;;;;15.15;10.90;;;;;;;0.95;71.61;94621.72;4205441;28;20051;-71
2024/01/09 03:19:55;;;;;;;13.02;10.45;;;;;;;1.03;72.23;94621.19;4204914;28;20044;-73
2024/01/09 03:21:57;;;;;;;15.98;10.52;;;;;;;1.11;71.14;94624.09;4204428;28;20048;-73
2024/01/09 03:23:59;;;;;;;12.60;10.50;;;;;;;1.18;71.22;94622.75;4205406;28;20113;-73
2024/01/09 03:26:01;;;;;;;13.30;10.73;;;;;;;0.87;70.70;94620.59;4196872;28;20048;-74
2024/01/09 03:28:03;;;;;;;16.20;11.18;;;;;;;0.56;72.55;94628.59;4202141;28;20056;-74
2024/01/09 03:30:06;;;;;;;14.40;10.90;;;;;;;0.53;72.74;94630.53;4192510;28;20044;-73
2024/01/09 03:32:08;;;;;;;14.18;11.43;;;;;;;0.57;73.57;94630.22;4203732;28;20052;-72
2024/01/09 03:34:10;;;;;;;14.52;11.93;;;;;;;0.70;72.97;94629.44;4204774;28;20439;-74
2024/01/09 03:36:12;;;;;;;14.15;11.13;;;;;;;0.89;72.49;94629.88;4200323;28;20075;-73
2024/01/09 03:38:14;;;;;;;13.15;10.88;;;;;;;0.82;72.25;94626.88;4206569;28;20512;-73
2024/01/09 03:40:16;;;;;;;14.02;11.20;;;;;;;0.73;71.96;94632.66;4205197;28;20427;-73
2024/01/09 03:42:18;;;;;;;15.38;11.55;;;;;;;0.86;72.45;94630.09;4206644;28;20059;-73
2024/01/09 03:44:20;;;;;;;14.85;11.50;;;;;;;0.29;73.56;94638.94;4204587;28;20142;-71
2024/01/09 03:46:22;;;;;;;14.32;11.88;;;;;;;-0.15;74.78;94647.72;4206374;28;20052;-74
2024/01/09 03:48:24;;;;;;;14.75;12.02;;;;;;;0.15;75.95;94641.53;4197411;28;20151;-74
2024/01/09 03:50:26;;;;;;;14.50;10.90;;;;;;;0.46;75.70;94650.72;4205505;28;20375;-73
2024/01/09 03:52:27;;;;;;;15.50;11.82;;;;;;;0.76;75.59;94647.09;4206046;28;20055;-73
2024/01/09 03:54:29;;;;;;;15.60;10.40;;;;;;;0.76;73.00;94642.75;4206266;28;20116;-75
2024/01/09 03:56:31;;;;;;;13.00;10.63;;;;;;;0.78;72.30;94647.81;4208257;28;20062;-76
2024/01/09 03:58:33;;;;;;;13.05;10.00;;;;;;;0.38;73.05;94653.78;4197669;28;20063;-75
2024/01/09 04:00:35;;;;;;;12.18;9.95;;;;;;;0.44;72.50;94656.91;4205581;28;20070;-75
2024/01/09 04:02:37;;;;;;;12.88;9.40;;;;;;;0.06;73.04;94673.03;4208319;28;20051;-74
2024/01/09 04:04:39;;;;;;;11.48;9.63;;;;;;;-0.03;74.15;94670.13;4206087;28;20055;-76
2024/01/09 04:06:44;;;;;;;13.85;10.57;;;;;;;0.01;74.50;94680.25;4201383;28;20682;-76
2024/01/09 04:08:46;;;;;;;13.35;9.82;;;;;;;-0.15;74.62;94673.47;4208894;28;20450;-74
2024/01/09 04:10:48;;;;;;;17.27;13.40;;;;;;;-0.29;75.31;94681.22;4207155;28;20584;-73
2024/01/09 04:12:50;;;;;;;27.00;18.95;;;;;;;-0.38;75.69;94680.03;4207235;28;20124;-74
2024/01/09 04:14:52;;;;;;;16.80;12.43;;;;;;;-0.46;76.54;94685.63;4200580;28;20047;-74
2024/01/09 04:16:54;;;;;;;20.58;13.60;;;;;;;-0.52;76.31;94691.16;4207165;28;20044;-72
2024/01/09 04:18:56;;;;;;;14.30;11.60;;;;;;;-0.49;76.30;94685.81;4207649;28;20409;-73
2024/01/09 04:20:57;;;;;;;14.57;11.32;;;;;;;-0.31;76.69;94693.34;4203313;28;20052;-75
2024/01/09 04:22:59;;;;;;;14.15;11.23;;;;;;;-0.23;75.69;94684.25;4205005;28;20051;-75
2024/01/09 04:25:01;;;;;;;16.75;12.15;;;;;;;-0.26;75.27;94696.47;4197152;28;20603;-73
2024/01/09 04:27:03;;;;;;;17.67;13.52;;;;;;;-0.28;75.82;94693.16;4202098;28;20156;-73
2024/01/09 04:29:05;;;;;;;14.77;10.43;;;;;;;-0.49;76.33;94697.88;4203283;28;20080;-75
2024/01/09 04:31:07;;;;;;;11.88;9.18;;;;;;;-0.42;75.96;94689.69;4204641;28;20083;-73
2024/01/09 04:33:09;;;;;;;12.68;9.77;;;;;;;-0.20;75.63;94690.94;4201112;28;20387;-75
2024/01/09 04:35:11;;;;;;;12.15;9.27;;;;;;;-0.26;75.05;94701.59;4202691;28;20504;-73
2024/01/09 04:37:13;;;;;;;12.98;9.45;;;;;;;-0.19;74.42;94700.34;4201395;28;20062;-73
2024/01/09 04:39:15;;;;;;;11.65;9.48;;;;;;;-0.39;74.76;94698.94;4203959;28;20055;-73
2024/01/09 04:41:17;;;;;;;13.60;9.57;;;;;;;-0.30;74.78;94703.56;4206315;28;20059;-70
2024/01/09 04:43:19;;;;;;;12.95;9.65;;;;;;;-0.23;74.88;94701.44;4199693;28;20048;-71
2024/01/09 04:45:22;;;;;;;13.13;9.68;;;;;;;-0.17;74.62;94713.09;4200045;28;20056;-70
2024/01/09 04:47:24;;;;;;;12.35;9.30;;;;;;;0.04;74.71;94711.78;4205654;28;20464;-72
2024/01/09 04:49:26;;;;;;;12.93;9.75;;;;;;;0.24;73.71;94714.84;4204213;28;20051;-73
2024/01/09 04:51:27;;;;;;;11.80;9.50;;;;;;;0.36;72.80;94722.63;4196618;28;20415;-73
2024/01/09 04:53:29;;;;;;;12.45;9.20;;;;;;;0.51;73.01;94722.59;4200624;28;20451;-73
2024/01/09 04:55:31;;;;;;;12.65;9.10;;;;;;;0.67;73.05;94725.00;4205258;28;20048;-72
2024/01/09 04:57:33;;;;;;;13.43;9.15;;;;;;;0.72;71.59;94726.38;4205115;28;20399;-75
2024/01/09 04:59:35;;;;;;;12.18;8.20;;;;;;;0.74;71.28;94723.72;4203548;28;20044;-74
2024/01/09 05:01:37;;;;;;;11.05;7.25;;;;;;;0.46;69.60;94732.38;4198218;28;20079;-72
2024/01/09 05:03:39;;;;;;;9.13;7.40;;;;;;;0.38;71.03;94733.69;4203780;28;20131;-78
2024/01/09 05:05:40;;;;;;;14.02;7.75;;;;;;;0.54;71.38;94736.13;4207983;28;20165;-73
2024/01/09 05:07:42;;;;;;;9.93;7.07;;;;;;;0.58;70.86;94734.16;4190468;28;20041;-75
2024/01/09 05:09:44;;;;;;;10.73;7.50;;;;;;;0.63;70.21;94729.56;4203572;28;20048;-78
2024/01/09 05:11:46;;;;;;;7.50;5.63;;;;;;;0.45;68.65;94722.97;4205421;28;20055;-73
2024/01/09 05:13:48;;;;;;;7.07;5.22;;;;;;;0.15;68.61;94721.41;4197093;28;20573;-73
2024/01/09 05:15:51;;;;;;;6.05;4.82;;;;;;;0.13;68.63;94713.78;4206182;28;20097;-74
2024/01/09 05:17:53;;;;;;;6.43;4.30;;;;;;;-0.04;68.70;94709.69;4202433;28;20060;-72
2024/01/09 05:19:55;;;;;;;7.95;5.45;;;;;;;0.08;69.14;94705.50;4207030;28;20044;-73
2024/01/09 05:21:59;;;;;;;7.22;5.45;;;;;;;0.20;68.68;94712.47;4200490;28;20055;-73
2024/01/09 05:24:01;;;;;;;10.32;6.70;;;;;;;0.20;69.30;94712.47;4195146;28;20058;-74
2024/01/09 05:26:03;;;;;;;9.18;6.45;;;;;;;0.16;69.10;94720.50;4197341;28;20131;-74
2024/01/09 05:28:05;;;;;;;10.55;7.35;;;;;;;0.13;68.91;94723.25;4205351;28;20105;-75
2024/01/09 05:30:10;;;;;;;9.68;7.05;;;;;;;0.11;69.09;94725.13;4206956;28;20124;-75
2024/01/09 05:32:12;;;;;;;10.20;7.22;;;;;;;0.04;69.85;94724.66;4204661;28;20071;-74
2024/01/09 05:34:14;;;;;;;10.35;7.30;;;;;;;0.17;70.13;94727.28;4201916;28;20550;-74
2024/01/09 05:36:22;;;;;;;12.65;8.05;;;;;;;0.10;69.86;94723.44;4204212;28;20052;-75
2024/01/09 05:38:24;;;;;;;12.80;9.00;;;;;;;0.05;70.26;94725.50;4203890;28;20049;-72
2024/01/09 05:40:26;;;;;;;10.82;7.95;;;;;;;0.06;69.91;94734.88;4203343;28;20084;-75
2024/01/09 05:42:28;;;;;;;10.38;7.40;;;;;;;0.15;69.56;94742.00;4201184;28;20136;-73
2024/01/09 05:44:30;;;;;;;12.32;7.75;;;;;;;0.27;69.73;94741.25;4204085;28;20649;-73
2024/01/09 05:46:32;;;;;;;11.30;6.57;;;;;;;0.45;69.46;94735.88;4207340;28;20056;-72
2024/01/09 05:48:34;;;;;;;9.57;6.20;;;;;;;0.60;69.09;94740.03;4205644;28;20052;-73
2024/01/09 05:50:36;;;;;;;6.18;4.00;;;;;;;0.67;67.58;94746.50;4202818;28;20509;-73
2024/01/09 05:52:38;;;;;;;5.20;3.80;;;;;;;0.78;68.06;94749.19;4204851;28;20048;-73
2024/01/09 05:54:45;;;;;;;7.07;3.85;;;;;;;0.91;67.08;94758.72;4209343;28;20060;-73
2024/01/09 05:56:47;;;;;;;6.28;3.60;;;;;;;0.79;66.42;94758.56;4203512;28;20076;-75
2024/01/09 05:58:49;;;;;;;5.55;3.35;;;;;;;0.55;65.79;94766.13;4201864;28;20054;-72
2024/01/09 06:00:51;;;;;;;4.90;3.65;;;;;;;0.18;67.03;94772.75;4209821;28;20044;-74
2024/01/09 06:02:53;;;;;;;5.72;3.95;;;;;;;-0.13;68.11;94772.06;4203824;28;20503;-74
2024/01/09 06:04:55;;;;;;;10.35;6.13;;;;;;;-0.05;69.02;94780.13;4209988;28;20059;-76
2024/01/09 06:06:57;;;;;;;7.40;4.63;;;;;;;0.23;69.26;94788.75;4203678;28;20054;-77
2024/01/09 06:08:59;;;;;;;6.50;3.10;;;;;;;0.35;66.97;94807.78;4201081;28;20079;-75
2024/01/09 06:11:01;;;;;;;3.63;3.05;;;;;;;0.43;66.56;94805.56;4207735;28;20036;-75
2024/01/09 06:13:03;;;;;;;7.85;3.28;;;;;;;0.21;66.22;94816.34;4205608;28;20048;-74
2024/01/09 06:15:05;;;;;;;4.22;3.38;;;;;;;0.19;66.33;94823.34;4210964;28;20253;-72
2024/01/09 06:17:08;;;;;;;4.10;3.20;;;;;;;-0.05;67.02;94828.22;4207751;28;20757;-77
2024/01/09 06:19:10;;;;;;;4.97;3.30;;;;;;;-0.19;67.00;94841.94;4204288;28;20440;-75
2024/01/09 06:21:12;;;;;;;5.15;3.35;;;;;;;-0.26;67.85;94851.78;4207813;28;20817;-73
2024/01/09 06:23:16;;;;;;;4.93;3.38;;;;;;;-0.18;67.10;94847.91;4200634;28;20088;-75
2024/01/09 06:25:21;;;;;;;4.47;3.78;;;;;;;-0.01;67.38;94858.03;4198793;28;20056;-76
2024/01/09 06:27:23;;;;;;;4.43;3.42;;;;;;;0.05;67.08;94877.47;4199222;28;20048;-78
2024/01/09 06:29:29;;;;;;;5.93;4.25;;;;;;;0.07;66.78;94868.72;4205479;28;20055;-75
2024/01/09 06:31:31;;;;;;;6.13;3.10;;;;;;;-0.08;67.13;94877.34;4199079;28;20452;-77
2024/01/09 06:33:33;;;;;;;5.13;3.42;;;;;;;-0.21;67.22;94887.53;4208382;28;20056;-73
2024/01/09 06:35:35;;;;;;;4.40;3.60;;;;;;;-0.06;67.70;94886.66;4200345;28;20043;-76
2024/01/09 06:37:38;;;;;;;6.03;3.67;;;;;;;-0.22;67.79;94902.16;4209013;28;20048;-74
2024/01/09 06:39:40;;;;;;;4.65;3.70;;;;;;;-0.50;69.30;94913.19;4209474;28;20082;-72
2024/01/09 06:41:43;;;;;;;4.97;3.60;;;;;;;-0.31;69.25;94919.88;4203665;28;20102;-74
2024/01/09 06:43:45;;;;;;;5.60;3.70;;;;;;;-0.16;68.83;94919.00;4200425;28;20117;-74
2024/01/09 06:45:46;;;;;;;5.13;3.97;;;;;;;-0.09;67.99;94922.88;4200234;28;20045;-75
2024/01/09 06:47:48;;;;;;;4.57;3.72;;;;;;;0.04;67.74;94927.31;4198895;28;20044;-74
2024/01/09 06:49:50;;;;;;;5.07;3.80;;;;;;;0.02;68.28;94932.53;4205276;28;20040;-73
2024/01/09 06:51:55;;;;;;;6.05;4.28;;;;;;;-0.13;68.15;94936.00;4203757;28;20207;-75
2024/01/09 06:53:57;;;;;;;5.30;4.03;;;;;;;-0.12;67.89;94948.81;4208223;28;20074;-74
2024/01/09 06:56:00;;;;;;;6.20;4.63;;;;;;;-0.03;67.61;94939.72;4203520;28;20044;-76
2024/01/09 06:58:04;;;;;;;6.47;4.40;;;;;;;-0.70;68.11;94952.09;4198516;28;20050;-75
2024/01/09 07:00:06;;;;;;;6.13;4.70;;;;;;;-0.58;69.48;94961.72;4200831;28;20054;-76
2024/01/09 07:02:08;;;;;;;5.88;4.75;;;;;;;-1.04;69.84;94961.66;4203575;28;20528;-74
2024/01/09 07:04:10;;;;;;;6.50;5.40;;;;;;;-1.14;71.14;94978.47;4205966;28;20136;-75
2024/01/09 07:06:12;;;;;;;9.80;5.20;;;;;;;-1.05;70.81;94968.53;4200991;28;20082;-78
2024/01/09 07:08:14;;;;;;;6.78;5.47;;;;;;;-1.38;71.93;94968.56;4206958;28;20056;-75
2024/01/09 07:10:16;;;;;;;7.68;5.50;;;;;;;-1.33;71.82;94973.50;4205646;28;20067;-67
2024/01/09 07:12:18;;;;;;;7.13;5.78;;;;;;;-1.51;72.12;94978.66;4198037;28;20121;-74
2024/01/09 07:14:20;;;;;;;8.10;6.15;;;;;;;-1.38;72.40;94976.28;4201842;28;20131;-72
2024/01/09 07:16:22;;;;;;;8.32;6.70;;;;;;;-1.38;71.97;94989.13;4206837;28;20462;-73
2024/01/09 07:18:24;;;;;;;7.15;5.53;;;;;;;-1.35;71.45;94994.13;4205712;28;20102;-74
2024/01/09 07:20:26;;;;;;;7.82;5.55;;;;;;;-1.83;72.94;94993.13;4198876;28;20084;-74
2024/01/09 07:22:28;;;;;;;7.88;6.05;;;;;;;-1.90;73.70;94995.19;4201302;28;20118;-76
2024/01/09 07:24:30;;;;;;;9.05;5.95;;;;;;;-1.98;74.15;95002.47;4202043;28;20120;-73
2024/01/09 07:26:38;;;;;;;8.25;6.47;;;;;;;-1.69;73.77;95003.56;4193376;28;20391;-74
2024/01/09 07:28:41;;;;;;;7.85;6.55;;;;;;;-1.50;72.48;95003.47;4207486;28;20474;-75
2024/01/09 07:30:44;;;;;;;9.48;6.97;;;;;;;-1.74;73.26;95002.13;4195095;28;20540;-76
2024/01/09 07:32:46;;;;;;;9.60;6.45;;;;;;;-1.73;73.23;95001.22;4207648;28;20446;-74
2024/01/09 07:34:48;;;;;;;8.43;5.72;;;;;;;-1.49;72.70;95001.72;4197918;28;20112;-76
2024/01/09 07:36:52;;;;;;;8.30;6.47;;;;;;;-1.23;71.85;95015.78;4199333;28;20066;-75
2024/01/09 07:38:54;;;;;;;7.40;5.82;;;;;;;-1.22;70.54;95016.63;4197330;28;20056;-74
2024/01/09 07:40:56;;;;;;;7.95;5.85;;;;;;;-1.21;70.39;95013.94;4194970;28;20110;-75
2024/01/09 07:43:01;;;;;;;9.68;6.63;;;;;;;-1.27;70.39;95006.56;4202954;28;20040;-76
2024/01/09 07:45:04;;;;;;;8.38;6.57;;;;;;;-1.34;71.31;95003.47;4193251;28;20047;-78
2024/01/09 07:47:07;;;;;;;7.82;5.95;;;;;;;-1.37;71.04;95013.94;4204442;28;20048;-75
2024/01/09 07:49:09;;;;;;;8.40;5.68;;;;;;;-1.33;70.96;95020.56;4201289;28;20052;-74
2024/01/09 07:51:12;;;;;;;8.52;6.63;;;;;;;-1.17;70.09;95009.50;4202789;28;20062;-71
2024/01/09 07:53:14;;;;;;;10.05;6.95;;;;;;;-1.07;69.89;95010.69;4197607;28;20052;-74
2024/01/09 07:55:16;;;;;;;9.95;6.55;;;;;;;-0.78;69.80;95008.28;4195227;28;20914;-75
2024/01/09 07:57:18;;;;;;;9.30;6.15;;;;;;;-0.72;69.39;95010.53;4203388;28;20133;-76
2024/01/09 07:59:25;;;;;;;9.73;7.03;;;;;;;-0.75;68.42;95014.09;4206453;28;20059;-76
2024/01/09 08:01:29;;;;;;;7.32;5.63;;;;;;;-0.73;68.57;95014.00;4204566;28;20048;-76
2024/01/09 08:03:30;;;;;;;8.15;6.00;;;;;;;-0.82;67.86;95020.47;4206025;28;20083;-77
2024/01/09 08:05:32;;;;;;;9.80;7.07;;;;;;;-0.66;68.04;95018.72;4197041;28;20353;-77
2024/01/09 08:07:35;;;;;;;8.40;5.85;;;;;;;-0.58;67.63;95025.19;4201676;28;20060;-79
2024/01/09 08:09:36;;;;;;;6.93;5.47;;;;;;;-0.47;67.34;95018.56;4191216;28;20067;-77
2024/01/09 08:11:38;;;;;;;9.07;6.22;;;;;;;-0.48;66.93;95023.78;4205282;28;20136;-75
2024/01/09 08:13:41;;;;;;;6.80;5.20;;;;;;;-0.65;66.94;95022.94;4191849;28;20384;-76
2024/01/09 08:15:42;;;;;;;7.05;5.40;;;;;;;-0.78;67.06;95026.28;4204074;28;20087;-75
2024/01/09 08:17:44;;;;;;;6.53;5.13;;;;;;;-1.11;67.06;95038.28;4202820;28;20052;-75
2024/01/09 08:19:46;;;;;;;7.90;5.65;;;;;;;-1.18;68.02;95041.25;4200432;28;20663;-74
2024/01/09 08:21:48;;;;;;;9.82;6.50;;;;;;;-1.10;68.08;95044.25;4195540;28;20041;-74
2024/01/09 08:23:50;;;;;;;9.30;7.35;;;;;;;-1.19;68.02;95045.56;4197671;28;20114;-75
2024/01/09 08:25:52;;;;;;;8.05;5.85;;;;;;;-1.06;67.90;95050.88;4192124;28;20049;-75
2024/01/09 08:27:54;;;;;;;6.57;5.15;;;;;;;-0.87;67.76;95041.28;4198067;28;20324;-75
2024/01/09 08:29:56;;;;;;;7.15;5.20;;;;;;;-0.80;66.74;95052.09;4199220;28;20044;-78
2024/01/09 08:31:58;;;;;;;8.25;5.50;;;;;;;-0.85;66.83;95048.94;4195790;28;20137;-76
2024/01/09 08:34:00;;;;;;;6.82;5.22;;;;;;;-0.73;67.29;95057.72;4195718;28;20132;-77
2024/01/09 08:36:02;;;;;;;5.70;4.72;;;;;;;-0.72;66.37;95062.78;4203856;28;20079;-74
2024/01/09 08:38:04;;;;;;;7.55;4.90;;;;;;;-0.81;66.91;95063.28;4208474;28;20060;-76
2024/01/09 08:40:06;;;;;;;7.00;5.18;;;;;;;-0.64;66.73;95070.13;4204300;28;20138;-74
2024/01/09 08:42:08;;;;;;;6.28;4.88;;;;;;;-0.55;66.00;95071.38;4203980;28;20075;-77
2024/01/09 08:44:10;;;;;;;7.00;5.30;;;;;;;-0.57;66.19;95068.88;4204389;28;20448;-77
2024/01/09 08:46:12;;;;;;;6.85;4.72;;;;;;;-0.61;66.01;95067.38;4199827;28;20052;-76
2024/01/09 08:48:14;;;;;;;6.07;4.43;;;;;;;-0.60;65.82;95066.47;4203228;28;20055;-74
2024/01/09 08:50:16;;;;;;;7.85;4.90;;;;;;;-0.91;66.59;95073.22;4192335;28;20051;-75
2024/01/09 08:52:24;;;;;;;7.03;5.40;;;;;;;-1.03;66.99;95068.75;4204570;28;20509;-74
2024/01/09 08:54:26;;;;;;;9.20;5.03;;;;;;;-1.01;67.76;95074.66;4197272;28;20052;-75
2024/01/09 08:56:28;;;;;;;7.72;5.20;;;;;;;-1.04;67.37;95079.94;4200062;28;20439;-75
2024/01/09 08:58:31;;;;;;;6.65;5.25;;;;;;;-1.01;67.03;95073.78;4202499;28;20193;-76
2024/01/09 09:00:32;;;;;;;7.25;5.20;;;;;;;-0.83;66.93;95060.81;4200371;28;20037;-74
2024/01/09 09:02:34;;;;;;;6.85;4.75;;;;;;;-0.56;66.29;95062.81;4203809;28;20139;-74
2024/01/09 09:04:36;;;;;;;9.20;5.90;;;;;;;-0.77;66.47;95063.97;4191878;28;20048;-76
2024/01/09 09:06:38;;;;;;;7.57;5.22;;;;;;;-0.94;65.87;95070.81;4203104;28;20048;-76
2024/01/09 09:08:40;;;;;;;7.55;4.97;;;;;;;-1.00;66.89;95071.16;4204278;28;20088;-75
2024/01/09 09:10:42;;;;;;;6.95;5.35;;;;;;;-1.07;67.26;95080.91;4202473;28;20048;-75
2024/01/09 09:12:44;;;;;;;6.68;5.47;;;;;;;-0.91;67.55;95078.38;4199501;28;20113;-74
2024/01/09 09:14:46;;;;;;;8.18;5.47;;;;;;;-0.89;66.76;95075.72;4196278;28;20044;-74
2024/01/09 09:16:48;;;;;;;8.75;5.70;;;;;;;-0.71;67.17;95081.63;4204212;28;20478;-74
2024/01/09 09:18:50;;;;;;;8.15;5.75;;;;;;;-0.48;66.83;95090.69;4198962;28;20082;-75
2024/01/09 09:20:51;;;;;;;6.70;5.40;;;;;;;-0.20;66.05;95090.03;4208131;28;20462;-76
2024/01/09 09:22:53;;;;;;;7.45;4.90;;;;;;;0.02;64.67;95084.50;4209410;28;20185;-76
2024/01/09 09:24:55;;;;;;;7.03;5.20;;;;;;;-0.02;63.34;95085.63;4209067;28;20044;-76
2024/01/09 09:26:57;;;;;;;7.60;5.90;;;;;;;-0.05;63.04;95078.06;4200798;28;20061;-75
2024/01/09 09:28:59;;;;;;;8.02;5.18;;;;;;;-1.13;64.88;95082.97;4197415;28;20703;-76
2024/01/09 09:31:16;;;;;;;8.05;5.68;;;;;;;-0.95;66.14;95096.63;4202269;28;20135;-78
2024/01/09 09:33:18;;;;;;;8.93;5.93;;;;;;;-1.05;65.48;95093.72;4204510;28;20056;-76
2024/01/09 09:35:20;;;;;;;8.98;5.60;;;;;;;-0.95;65.47;95101.75;4195529;28;20052;-73